Hartland, VT (05048)

9:19 AM EDT on September 05, 2015 (GMT -0400)
Hartland Four Corners | | Change Station
CLOSE
Current Station
Personal Weather Station
Location: Hartland, VT
Elevation: 968 ft
Nearby Weather Stations

Elev 968 ft 43.55 °N, 72.44 °W | Updated 5 seconds ago

Overcast
Overcast
56.1 °F
Feels Like 56.1 °F
N
0.0
Wind Variable Wind from East
Gusts 2.0 mph

Today
High -- | Low -- °F
--% Chance of Precip.
Yesterday
High -- | Low -- °F
Precip. -- in
6:17 AM 7:18 PM
Waning Gibbous, 48% visible
Pressure 30.32 in
Visibility 3.0 miles
Clouds Overcast 100 ft
Dew Point 55 °F
Humidity 97%
Rainfall 0.00 in
Snow Depth Not available.
UV 1 out of 12
Pollen 7.70 out of 12
Air Quality Not available.
Flu Activity Not available.
SPECI KLEB 051306Z 22003KT 3SM BR OVC001 14/13 A3032 RMK AO2 T01390128
Pressure 30.32 in
Visibility 3.0 miles
Clouds Overcast 100 ft
Dew Point 55 °F
Humidity 97%
Rainfall 0.00 in
Snow Depth Not available.
UV 1 out of 12
Pollen 7.70 out of 12
Air Quality Not available.
Flu Activity Not available.
SPECI KLEB 051306Z 22003KT 3SM BR OVC001 14/13 A3032 RMK AO2 T01390128

10-Day Weather Forecast

×

Almanac

Astronomy

Sep. 05, 2015 Rise Set
Actual Time
Civil Twilight
Nautical Twilight
Astronomical Twilight
Moon
Length of Visible Light
Length of Day
Tomorrow will be .
, % of the Moon is Illuminated

Today's Extremes

State Highs State Lows

Community

WunderPhotos

Upload Photos

1,852,454 photos uploaded!

WunderBlogs® & News

Nearby

Air Quality

  Air Quality AQ Index Pollutant
Not available.

Snow Depth

Station Depth Elevation

Earthquake Activity

City Distance Mag. Time & Date
Minimum magnitude displayed is 2.5.

Coastal Water Temperatures

Place Temperature

Stations

Nearby Weather Stations

Station Location Temp. Windchill Dew Point Humidity Wind Precip. Elev Updated Type